Time;durP1;ratioP1;P1;durP2;ratioP2;P2;SDS_P1;SDS_P2;PMS_P1;PMS_P2;Temp;Humidity;BMP_temperature;BMP_pressure;BME280_temperature;BME280_humidity;BME280_pressure;Samples;Min_cycle;Max_cycle;Signal;HPM_P1;HPM_P2
2021/12/08 00:01:35;;;;;;;47.47;28.30;;;;;;;0.90;86.57;100226.31;5013911;28;20437;-43
2021/12/08 00:04:04;;;;;;;46.50;30.67;;;;;;;0.85;86.76;100215.44;5013248;28;20476;-45
2021/12/08 00:06:32;;;;;;;45.17;28.13;;;;;;;0.87;86.13;100217.91;5013734;28;20452;-45
2021/12/08 00:09:16;;;;;;;47.10;30.00;;;;;;;0.89;86.80;100215.97;5013586;28;20442;-44
2021/12/08 00:14:30;;;;;;;47.07;30.30;;;;;;;0.82;86.75;100209.66;5012925;28;20564;-43
2021/12/08 00:16:57;;;;;;;45.50;26.13;;;;;;;0.83;87.08;100201.66;5013432;28;20838;-43
2021/12/08 00:19:28;;;;;;;45.90;31.27;;;;;;;0.82;86.97;100193.91;5013524;28;20484;-44
2021/12/08 00:21:56;;;;;;;37.97;27.70;;;;;;;0.78;87.52;100193.38;5013623;28;20433;-43
2021/12/08 00:24:25;;;;;;;43.77;28.57;;;;;;;0.76;87.01;100187.47;5012864;28;20469;-43
2021/12/08 00:26:54;;;;;;;44.37;27.57;;;;;;;0.77;87.17;100197.00;5013640;28;20437;-44
2021/12/08 00:29:22;;;;;;;45.43;30.87;;;;;;;0.76;87.27;100191.88;5012954;28;20828;-45
2021/12/08 00:31:50;;;;;;;47.60;30.37;;;;;;;0.76;86.99;100168.25;5013408;28;20798;-43
2021/12/08 00:34:17;;;;;;;50.07;31.17;;;;;;;0.74;87.07;100172.84;5012530;28;20470;-46
2021/12/08 00:36:47;;;;;;;48.20;30.00;;;;;;;0.70;87.50;100168.84;5013331;28;20433;-48
2021/12/08 00:39:15;;;;;;;48.87;31.10;;;;;;;0.66;86.35;100157.81;5012635;28;20481;-44
2021/12/08 00:41:43;;;;;;;46.70;30.00;;;;;;;0.67;86.30;100140.28;5013088;28;20433;-47
2021/12/08 00:44:11;;;;;;;45.23;28.80;;;;;;;0.63;86.29;100136.31;5012596;28;20468;-43
2021/12/08 00:46:38;;;;;;;43.37;29.33;;;;;;;0.66;86.33;100134.19;5013104;28;20434;-45
2021/12/08 00:49:08;;;;;;;48.97;28.70;;;;;;;0.65;86.59;100140.44;5012869;28;20444;-44
2021/12/08 00:51:35;;;;;;;45.77;28.30;;;;;;;0.64;86.27;100132.69;5013233;28;20930;-45
2021/12/08 00:54:05;;;;;;;49.33;30.17;;;;;;;0.61;85.86;100127.75;5012094;28;20824;-46
2021/12/08 00:56:32;;;;;;;46.73;30.20;;;;;;;0.64;86.69;100145.81;5012653;28;20441;-43
2021/12/08 00:59:00;;;;;;;43.27;29.00;;;;;;;0.66;86.78;100136.81;5012780;28;20472;-44
2021/12/08 01:01:29;;;;;;;44.20;29.00;;;;;;;0.67;87.22;100130.59;5012712;28;20523;-44
2021/12/08 01:03:57;;;;;;;50.03;31.03;;;;;;;0.67;87.73;100135.03;5012243;28;20457;-45
2021/12/08 01:06:24;;;;;;;44.97;28.03;;;;;;;0.67;87.49;100135.03;5012731;28;20433;-46
2021/12/08 01:08:52;;;;;;;47.33;31.33;;;;;;;0.73;87.63;100145.75;5012363;28;20440;-44
2021/12/08 01:11:22;;;;;;;47.13;28.73;;;;;;;0.72;88.15;100145.94;5012778;28;20798;-46
2021/12/08 01:13:51;;;;;;;44.50;30.17;;;;;;;0.71;88.89;100145.09;5011960;28;20465;-44
2021/12/08 01:16:20;;;;;;;46.03;27.60;;;;;;;0.71;88.74;100150.34;5012747;28;20536;-44
2021/12/08 01:18:47;;;;;;;46.63;29.70;;;;;;;0.75;88.75;100135.09;5012410;28;20443;-45
2021/12/08 01:21:17;;;;;;;47.27;29.80;;;;;;;0.73;89.02;100135.25;5012320;28;20449;-44
2021/12/08 01:23:45;;;;;;;50.10;31.70;;;;;;;0.74;89.44;100122.97;5012051;28;20461;-44
2021/12/08 01:26:13;;;;;;;52.60;33.57;;;;;;;0.74;89.39;100130.84;5012376;28;20433;-43
2021/12/08 01:28:42;;;;;;;43.53;28.53;;;;;;;0.74;89.71;100128.22;5012448;28;20905;-43
2021/12/08 01:31:09;;;;;;;53.60;29.40;;;;;;;0.76;89.84;100124.47;5012504;28;20463;-41
2021/12/08 01:33:37;;;;;;;46.20;29.00;;;;;;;0.74;90.32;100112.47;5011605;28;20453;-42
2021/12/08 01:36:07;;;;;;;49.77;31.97;;;;;;;0.71;89.83;100113.59;5011992;28;20460;-41
2021/12/08 01:38:35;;;;;;;44.80;30.33;;;;;;;0.68;89.79;100102.56;5012214;28;20418;-42
2021/12/08 01:41:05;;;;;;;48.17;30.73;;;;;;;0.67;89.74;100101.75;5011928;28;20477;-43
2021/12/08 01:43:42;;;;;;;49.53;30.10;;;;;;;0.67;89.79;100096.50;5011579;28;20426;-42
2021/12/08 01:46:13;;;;;;;57.20;30.80;;;;;;;0.70;89.44;100098.00;5012011;28;20440;-42
2021/12/08 01:48:43;;;;;;;51.33;30.27;;;;;;;0.74;89.65;100094.09;5012015;28;20456;-42
2021/12/08 01:51:14;;;;;;;48.57;30.37;;;;;;;0.72;89.91;100098.69;5011508;28;20453;-41
2021/12/08 01:53:45;;;;;;;49.57;32.17;;;;;;;0.77;89.80;100086.75;5013514;28;20467;-41
2021/12/08 01:56:13;;;;;;;43.87;30.67;;;;;;;0.81;90.43;100076.78;5013039;28;20473;-42
2021/12/08 01:58:41;;;;;;;46.43;29.50;;;;;;;0.80;90.51;100059.38;5012019;28;20439;-42
2021/12/08 02:01:12;;;;;;;45.80;31.27;;;;;;;0.83;90.75;100066.97;5011867;28;20485;-42
2021/12/08 02:03:41;;;;;;;50.60;30.60;;;;;;;0.81;90.39;100053.16;5011572;28;20461;-42
2021/12/08 02:06:11;;;;;;;50.90;28.70;;;;;;;0.81;90.55;100064.47;5012063;28;20883;-42
2021/12/08 02:08:39;;;;;;;45.00;28.13;;;;;;;0.86;90.53;100053.53;5011928;28;20431;-43
2021/12/08 02:14:54;;;;;;;47.33;27.90;;;;;;;0.90;90.94;100031.25;5011130;28;21013;-42
2021/12/08 02:17:24;;;;;;;42.90;28.63;;;;;;;0.90;90.58;100024.19;5012031;28;20796;-42
2021/12/08 02:19:51;;;;;;;41.73;27.40;;;;;;;0.89;90.49;100025.19;5011838;28;20901;-42
2021/12/08 02:22:20;;;;;;;52.43;27.13;;;;;;;0.94;90.17;100024.72;5011862;28;20436;-43
2021/12/08 02:24:48;;;;;;;51.27;30.43;;;;;;;0.92;90.23;100006.50;5011102;28;20465;-44
2021/12/08 02:27:15;;;;;;;49.97;28.90;;;;;;;0.95;89.78;100011.47;5011864;28;20459;-42
2021/12/08 02:29:49;;;;;;;44.20;26.50;;;;;;;0.98;90.13;100010.31;5011601;28;20472;-42
2021/12/08 02:46:34;;;;;;;39.90;27.43;;;;;;;1.02;89.95;100011.66;5011603;28;20438;-43
2021/12/08 02:49:04;;;;;;;40.17;25.40;;;;;;;1.11;89.96;99969.53;5011467;28;20930;-42
2021/12/08 02:51:31;;;;;;;46.30;28.00;;;;;;;1.13;89.56;99964.94;5011862;28;20430;-42
2021/12/08 02:54:00;;;;;;;42.17;25.77;;;;;;;1.15;89.51;99977.94;5011087;28;20465;-42
2021/12/08 02:56:30;;;;;;;40.83;26.30;;;;;;;1.13;89.92;99959.69;5011496;28;20441;-42
2021/12/08 02:58:58;;;;;;;38.40;27.80;;;;;;;1.18;89.93;99963.69;5011493;28;20443;-42
2021/12/08 03:01:28;;;;;;;38.87;24.17;;;;;;;1.19;89.56;99944.31;5011290;28;20476;-44
2021/12/08 03:03:56;;;;;;;39.87;27.10;;;;;;;1.22;89.98;99960.59;5013037;28;20530;-43
2021/12/08 03:06:24;;;;;;;40.00;26.10;;;;;;;1.22;90.26;99944.84;5015110;28;20795;-45
2021/12/08 03:08:51;;;;;;;35.67;24.43;;;;;;;1.22;90.12;99950.09;5014747;28;20931;-44
2021/12/08 03:11:20;;;;;;;36.53;26.00;;;;;;;1.24;89.79;99942.03;5014856;28;20433;-42
2021/12/08 03:14:00;;;;;;;33.43;23.67;;;;;;;1.24;89.70;99945.50;5014061;28;20445;-42
2021/12/08 03:16:28;;;;;;;41.90;25.70;;;;;;;1.24;90.24;99919.22;5015108;28;20429;-43
2021/12/08 03:18:56;;;;;;;42.33;26.10;;;;;;;1.29;90.16;99916.94;5014794;28;20437;-42
2021/12/08 03:21:30;;;;;;;40.53;24.17;;;;;;;1.30;90.63;99923.03;5014652;28;20477;-42
2021/12/08 03:24:11;;;;;;;42.40;26.40;;;;;;;1.29;90.43;99914.31;5014073;28;20461;-42
2021/12/08 03:26:48;;;;;;;40.23;24.73;;;;;;;1.33;90.54;99912.22;5014759;28;20429;-42
2021/12/08 03:29:25;;;;;;;38.67;24.23;;;;;;;1.35;90.28;99900.56;5014448;28;20465;-45
2021/12/08 03:32:02;;;;;;;38.97;24.00;;;;;;;1.36;91.21;99881.22;5014615;28;20432;-44
2021/12/08 03:34:31;;;;;;;39.80;24.50;;;;;;;1.39;90.79;99896.66;5013877;28;20471;-42
2021/12/08 03:36:59;;;;;;;31.53;23.67;;;;;;;1.38;91.54;99892.38;5014488;28;20440;-43
2021/12/08 03:39:27;;;;;;;35.83;24.70;;;;;;;1.39;91.28;99883.50;5013996;28;20457;-42
2021/12/08 03:41:56;;;;;;;36.50;23.50;;;;;;;1.38;91.28;99887.13;5014233;28;20473;-42
2021/12/08 03:44:24;;;;;;;34.77;25.07;;;;;;;1.38;91.63;99866.09;5013727;28;20468;-42
2021/12/08 03:46:55;;;;;;;38.43;26.70;;;;;;;1.40;91.12;99895.69;5014240;28;20433;-43
2021/12/08 03:49:23;;;;;;;38.07;22.63;;;;;;;1.42;91.13;99869.22;5013954;28;20461;-43
2021/12/08 03:51:51;;;;;;;31.20;22.00;;;;;;;1.42;91.62;99866.59;5014191;28;20433;-42
2021/12/08 03:54:19;;;;;;;34.10;23.63;;;;;;;1.46;91.46;99863.53;5013508;28;20472;-47
2021/12/08 03:56:46;;;;;;;30.13;22.63;;;;;;;1.47;91.81;99866.94;5013982;28;20437;-43
2021/12/08 03:59:15;;;;;;;36.20;25.17;;;;;;;1.49;91.84;99863.16;5013712;28;20471;-43
2021/12/08 04:01:43;;;;;;;42.73;25.10;;;;;;;1.53;91.86;99866.31;5013764;28;20469;-42
2021/12/08 04:04:11;;;;;;;36.90;23.37;;;;;;;1.51;92.35;99831.50;5013404;28;20498;-42
2021/12/08 04:06:45;;;;;;;37.53;23.33;;;;;;;1.53;92.25;99837.41;5013849;28;20433;-43
2021/12/08 04:09:19;;;;;;;39.37;25.73;;;;;;;1.58;92.39;99848.28;5013550;28;20981;-43
2021/12/08 04:11:47;;;;;;;38.33;24.10;;;;;;;1.61;92.42;99842.69;5013675;28;20939;-42
2021/12/08 04:14:19;;;;;;;34.30;21.90;;;;;;;1.60;91.99;99844.50;5012452;28;20472;-44
2021/12/08 04:16:49;;;;;;;27.13;21.13;;;;;;;1.65;92.04;99847.47;5013716;28;20436;-44
2021/12/08 04:19:18;;;;;;;34.77;21.53;;;;;;;1.68;92.57;99862.91;5013688;28;20491;-44
2021/12/08 04:21:47;;;;;;;34.13;22.80;;;;;;;1.74;92.29;99858.81;5013307;28;20473;-42
2021/12/08 04:24:16;;;;;;;29.00;22.67;;;;;;;1.73;92.25;99867.69;5012862;28;20561;-44
2021/12/08 04:26:55;;;;;;;32.63;22.77;;;;;;;1.76;92.36;99877.06;5013252;28;20797;-46
2021/12/08 04:29:28;;;;;;;30.77;21.57;;;;;;;1.79;92.33;99889.88;5013160;28;20982;-42
2021/12/08 04:31:58;;;;;;;39.47;24.10;;;;;;;1.80;92.00;99879.19;5013787;28;20429;-42
2021/12/08 04:34:37;;;;;;;34.13;23.87;;;;;;;1.83;92.05;99883.28;5013236;28;20962;-42
2021/12/08 04:37:15;;;;;;;31.50;22.10;;;;;;;1.83;91.95;99872.78;5013753;28;20433;-42
2021/12/08 04:39:52;;;;;;;32.10;24.07;;;;;;;1.86;91.97;99873.28;5013213;28;20810;-43
2021/12/08 04:42:29;;;;;;;31.67;22.37;;;;;;;1.91;91.75;99865.72;5013242;28;20803;-44
2021/12/08 04:45:07;;;;;;;34.73;21.97;;;;;;;1.94;91.62;99869.84;5012725;28;20466;-43
2021/12/08 04:47:46;;;;;;;36.17;22.40;;;;;;;1.94;91.53;99870.66;5012928;28;20429;-42
2021/12/08 04:50:36;;;;;;;30.37;21.80;;;;;;;1.94;91.50;99864.59;5013155;28;20465;-42
2021/12/08 04:53:22;;;;;;;28.37;21.97;;;;;;;1.93;91.10;99842.75;5013203;28;20826;-43
2021/12/08 05:01:32;;;;;;;26.73;18.77;;;;;;;1.97;91.20;99848.50;5012794;28;20500;-42
2021/12/08 05:04:32;;;;;;;30.37;21.03;;;;;;;1.96;91.01;99855.56;5010799;28;20464;-45
2021/12/08 05:07:16;;;;;;;34.60;21.93;;;;;;;2.00;91.01;99859.50;5012863;28;20827;-42
2021/12/08 05:09:46;;;;;;;30.13;21.43;;;;;;;2.01;91.06;99857.69;5012673;28;20457;-44
2021/12/08 05:12:17;;;;;;;37.97;22.37;;;;;;;2.01;91.28;99879.56;5012772;28;20931;-44
2021/12/08 05:14:49;;;;;;;29.33;20.20;;;;;;;2.02;91.41;99854.91;5010759;28;20491;-42
2021/12/08 05:17:22;;;;;;;30.50;21.30;;;;;;;2.05;90.87;99853.75;5005162;28;20832;-42
2021/12/08 05:19:56;;;;;;;30.20;22.13;;;;;;;2.07;90.63;99849.16;4991472;28;20468;-41
2021/12/08 05:22:28;;;;;;;29.87;22.20;;;;;;;2.04;90.84;99842.41;4991735;28;20859;-42
2021/12/08 05:24:59;;;;;;;29.20;22.20;;;;;;;2.07;90.66;99836.00;4990891;28;20474;-43
2021/12/08 05:27:31;;;;;;;31.07;21.80;;;;;;;2.06;90.93;99844.91;4991111;28;20903;-42
2021/12/08 05:30:09;;;;;;;28.93;20.00;;;;;;;2.05;90.40;99840.63;4991540;28;20868;-44
2021/12/08 05:32:38;;;;;;;31.30;20.10;;;;;;;2.07;90.52;99846.53;4990871;28;20434;-42
2021/12/08 05:35:09;;;;;;;36.83;22.23;;;;;;;2.07;90.49;99849.97;4990904;28;20472;-46
2021/12/08 05:37:38;;;;;;;25.87;20.83;;;;;;;2.09;90.75;99836.69;4991184;28;20434;-42
2021/12/08 05:40:08;;;;;;;29.63;20.90;;;;;;;2.05;90.92;99835.34;5010832;28;20463;-45
2021/12/08 05:42:36;;;;;;;31.90;21.00;;;;;;;2.03;91.21;99845.22;4991351;28;20496;-42
2021/12/08 05:45:07;;;;;;;27.33;20.60;;;;;;;2.01;91.47;99826.97;4990835;28;20473;-42
2021/12/08 05:47:35;;;;;;;31.63;20.73;;;;;;;1.97;91.86;99838.00;4990628;28;20430;-45
2021/12/08 05:50:06;;;;;;;33.80;22.93;;;;;;;1.97;92.18;99838.78;4990654;28;20458;-45
2021/12/08 05:52:34;;;;;;;33.23;22.07;;;;;;;1.95;92.35;99832.88;5006856;28;20492;-43
2021/12/08 05:55:04;;;;;;;29.50;22.07;;;;;;;1.92;92.05;99843.72;5008853;28;20457;-46
2021/12/08 05:57:35;;;;;;;37.30;23.63;;;;;;;1.88;92.17;99847.66;5009938;28;20521;-45
2021/12/08 06:00:06;;;;;;;33.17;22.93;;;;;;;1.83;92.02;99857.84;5009673;28;20457;-43
2021/12/08 06:02:37;;;;;;;28.47;21.87;;;;;;;1.80;91.86;99849.44;5009711;28;20480;-47
2021/12/08 06:05:10;;;;;;;32.90;21.57;;;;;;;1.72;91.21;99859.94;5009598;28;20493;-43
2021/12/08 06:07:37;;;;;;;32.30;22.83;;;;;;;1.65;90.19;99862.41;5010154;28;20406;-45
2021/12/08 06:10:10;;;;;;;29.60;21.27;;;;;;;1.61;89.72;99861.09;5009796;28;20457;-42
2021/12/08 06:12:38;;;;;;;34.13;23.77;;;;;;;1.58;89.02;99862.22;5009647;28;20540;-42
2021/12/08 06:15:06;;;;;;;38.77;22.80;;;;;;;1.54;88.48;99871.41;5008563;28;20472;-44
2021/12/08 06:17:34;;;;;;;29.10;19.77;;;;;;;1.45;87.88;99866.28;5009791;28;20433;-45
2021/12/08 06:20:02;;;;;;;36.27;24.60;;;;;;;1.43;86.26;99871.72;5009443;28;20463;-43
2021/12/08 06:22:31;;;;;;;33.47;23.50;;;;;;;1.38;85.52;99865.28;5009299;28;20476;-42
2021/12/08 06:24:59;;;;;;;34.07;22.57;;;;;;;1.37;84.77;99867.09;5009903;28;20465;-43
2021/12/08 06:27:26;;;;;;;33.63;23.60;;;;;;;1.31;84.38;99862.47;5006842;28;21562;-44
2021/12/08 06:29:54;;;;;;;28.33;22.40;;;;;;;1.31;83.73;99874.78;5008305;28;20558;-44
2021/12/08 06:32:22;;;;;;;36.30;24.20;;;;;;;1.23;83.71;99861.59;5009046;28;20429;-42
2021/12/08 06:34:53;;;;;;;35.83;23.00;;;;;;;1.22;82.34;99859.97;5008685;28;20467;-42
2021/12/08 06:37:24;;;;;;;38.80;23.57;;;;;;;1.24;81.52;99873.75;5010073;28;20429;-44
2021/12/08 06:39:58;;;;;;;37.37;22.97;;;;;;;1.14;80.12;99868.63;5012626;28;20476;-45
2021/12/08 06:42:31;;;;;;;42.03;24.10;;;;;;;1.11;78.73;99882.91;5013156;28;20480;-44
2021/12/08 06:44:59;;;;;;;35.67;24.63;;;;;;;1.09;77.45;99876.16;5013055;28;20457;-45
2021/12/08 06:47:30;;;;;;;39.07;24.00;;;;;;;1.10;76.92;99872.56;5014198;28;20443;-46
2021/12/08 06:50:06;;;;;;;34.60;24.00;;;;;;;1.14;76.56;99881.75;5014179;28;20464;-45
2021/12/08 06:52:38;;;;;;;35.13;22.67;;;;;;;1.14;76.96;99871.25;5013819;28;20425;-44
2021/12/08 06:55:12;;;;;;;37.23;23.83;;;;;;;1.13;77.06;99882.75;5013587;28;20965;-42
2021/12/08 06:57:43;;;;;;;42.27;24.57;;;;;;;1.09;76.64;99882.25;5013663;28;20439;-45
2021/12/08 07:00:22;;;;;;;37.43;23.90;;;;;;;1.13;75.92;99881.94;5013474;28;20826;-43
2021/12/08 07:03:03;;;;;;;41.43;26.20;;;;;;;1.09;75.67;99869.09;5012717;28;20855;-42
2021/12/08 07:06:03;;;;;;;44.83;24.33;;;;;;;1.11;75.26;99874.19;5009977;28;21001;-42
2021/12/08 07:08:31;;;;;;;42.47;23.80;;;;;;;1.14;74.79;99889.63;5011700;28;20488;-42
2021/12/08 07:11:01;;;;;;;32.50;21.63;;;;;;;1.15;74.90;99887.84;5013639;28;20467;-47
2021/12/08 07:13:31;;;;;;;37.70;25.13;;;;;;;1.17;74.94;99888.50;5013755;28;20443;-43
2021/12/08 07:16:23;;;;;;;34.70;24.67;;;;;;;1.12;74.37;99881.09;5014165;28;20453;-41
2021/12/08 07:18:57;;;;;;;35.13;22.50;;;;;;;1.11;73.41;99885.53;5013672;28;20858;-42
2021/12/08 07:21:29;;;;;;;35.57;22.50;;;;;;;1.09;72.07;99892.75;5014239;28;20417;-42
2021/12/08 07:24:02;;;;;;;31.83;23.30;;;;;;;1.08;71.60;99888.47;5013146;28;20461;-41
2021/12/08 07:26:33;;;;;;;31.73;23.30;;;;;;;1.07;71.17;99889.47;5013967;28;20432;-42
2021/12/08 07:29:03;;;;;;;39.67;24.80;;;;;;;1.09;71.33;99877.00;5013586;28;20808;-41
2021/12/08 07:31:36;;;;;;;40.10;25.23;;;;;;;1.10;70.88;99880.44;5013937;28;20416;-42
2021/12/08 07:34:08;;;;;;;37.40;24.77;;;;;;;1.11;70.85;99875.00;5013385;28;20460;-42
2021/12/08 07:36:41;;;;;;;30.70;22.83;;;;;;;1.13;71.52;99881.94;5013471;28;20433;-44
2021/12/08 07:39:14;;;;;;;33.83;23.80;;;;;;;1.14;71.90;99892.25;5013410;28;20444;-42
2021/12/08 07:41:49;;;;;;;33.13;24.17;;;;;;;1.10;71.31;99880.44;5013913;28;20429;-42
2021/12/08 07:44:17;;;;;;;37.77;24.53;;;;;;;1.15;70.69;99887.84;5012831;28;20475;-42
2021/12/08 07:46:48;;;;;;;32.53;21.87;;;;;;;1.11;71.72;99887.31;5012203;28;20437;-46
2021/12/08 07:49:18;;;;;;;31.37;23.10;;;;;;;1.13;71.61;99884.56;5009832;28;21154;-43
2021/12/08 07:51:50;;;;;;;36.03;24.17;;;;;;;1.14;71.34;99884.38;5010864;28;20430;-42
2021/12/08 07:54:19;;;;;;;32.10;22.57;;;;;;;1.17;72.07;99888.50;5009951;28;20959;-42
2021/12/08 07:56:52;;;;;;;30.60;22.60;;;;;;;1.13;72.04;99887.19;5010256;28;20437;-45
2021/12/08 07:59:22;;;;;;;33.77;22.57;;;;;;;1.12;72.45;99875.84;5012337;28;20460;-44
2021/12/08 08:01:52;;;;;;;34.83;21.80;;;;;;;1.16;72.05;99881.63;5013461;28;20432;-43
2021/12/08 08:04:24;;;;;;;32.03;21.30;;;;;;;1.17;72.04;99886.69;5012190;28;20462;-43
2021/12/08 08:06:54;;;;;;;30.47;21.93;;;;;;;1.21;72.61;99890.66;5009231;28;20453;-42
2021/12/08 08:09:24;;;;;;;36.77;22.43;;;;;;;1.23;73.08;99886.06;5008226;28;20453;-42
2021/12/08 08:11:58;;;;;;;32.43;22.63;;;;;;;1.24;73.25;99882.47;5013532;28;20432;-44
2021/12/08 08:14:31;;;;;;;33.40;24.53;;;;;;;1.26;73.60;99888.38;5013081;28;20461;-44
2021/12/08 08:17:00;;;;;;;33.57;21.60;;;;;;;1.27;74.51;99882.16;5013971;28;20426;-44
2021/12/08 08:19:31;;;;;;;33.80;23.23;;;;;;;1.30;75.44;99889.72;5013839;28;20459;-45
2021/12/08 08:22:02;;;;;;;30.50;22.07;;;;;;;1.30;76.16;99888.88;5013429;28;20437;-43
2021/12/08 08:24:30;;;;;;;28.37;21.70;;;;;;;1.28;77.08;99891.69;5012272;28;20476;-42
2021/12/08 08:27:04;;;;;;;31.60;22.33;;;;;;;1.22;78.41;99892.31;5012981;28;20438;-42
2021/12/08 08:29:32;;;;;;;28.03;21.40;;;;;;;1.21;77.45;99895.09;5012927;28;20480;-42
2021/12/08 08:32:06;;;;;;;40.90;24.33;;;;;;;1.19;77.46;99897.06;5013569;28;20978;-42
2021/12/08 08:34:38;;;;;;;39.37;23.07;;;;;;;1.15;76.87;99904.41;5004702;28;20494;-42
2021/12/08 08:37:09;;;;;;;35.50;22.77;;;;;;;1.17;77.23;99897.19;5013461;28;20430;-43
2021/12/08 08:39:41;;;;;;;30.47;23.60;;;;;;;1.11;77.11;99897.81;5012956;28;20453;-41
2021/12/08 08:42:16;;;;;;;32.90;23.90;;;;;;;1.11;76.95;99903.91;5013231;28;20429;-41
2021/12/08 08:44:47;;;;;;;31.40;23.83;;;;;;;1.12;76.68;99907.34;5012245;28;20461;-41
2021/12/08 08:47:20;;;;;;;28.57;21.53;;;;;;;1.10;76.08;99919.81;5013001;28;20433;-45
2021/12/08 08:49:48;;;;;;;27.30;21.53;;;;;;;1.09;76.14;99918.16;5013168;28;20465;-41
2021/12/08 08:52:24;;;;;;;28.00;21.53;;;;;;;1.10;75.07;99923.28;5012888;28;20433;-42
2021/12/08 08:54:55;;;;;;;33.37;23.07;;;;;;;1.11;75.23;99913.56;5012558;28;20465;-43
2021/12/08 08:57:28;;;;;;;31.50;22.70;;;;;;;1.15;74.60;99919.34;5012802;28;20931;-41
2021/12/08 08:59:59;;;;;;;31.80;23.10;;;;;;;1.19;74.72;99929.41;5012681;28;20970;-41
2021/12/08 09:02:33;;;;;;;29.93;22.43;;;;;;;1.22;74.41;99936.97;5012735;28;20433;-43
2021/12/08 09:05:07;;;;;;;28.93;21.07;;;;;;;1.25;74.75;99933.19;5012267;28;20550;-44
2021/12/08 09:07:39;;;;;;;28.80;21.53;;;;;;;1.30;74.69;99930.91;5012063;28;20564;-42
2021/12/08 09:10:12;;;;;;;29.10;22.03;;;;;;;1.29;75.94;99935.34;5012380;28;20471;-44
2021/12/08 09:12:47;;;;;;;28.37;21.17;;;;;;;1.28;76.69;99935.50;5012353;28;20433;-44
2021/12/08 09:15:18;;;;;;;33.50;22.90;;;;;;;1.30;75.95;99929.13;5011932;28;20556;-42
2021/12/08 09:17:55;;;;;;;25.13;22.37;;;;;;;1.33;75.30;99933.22;5012821;28;20433;-41
2021/12/08 09:20:28;;;;;;;38.67;23.97;;;;;;;1.33;75.79;99931.44;5012302;28;20457;-41
2021/12/08 09:23:00;;;;;;;30.67;22.00;;;;;;;1.40;75.92;99936.88;5012356;28;20876;-41
2021/12/08 09:25:32;;;;;;;35.30;24.30;;;;;;;1.42;75.69;99937.53;5011978;28;20473;-42
2021/12/08 09:28:06;;;;;;;27.40;20.73;;;;;;;1.46;76.20;99934.44;5012047;28;20440;-42
2021/12/08 09:30:42;;;;;;;30.20;23.97;;;;;;;1.44;77.05;99938.19;5010772;28;20467;-42
2021/12/08 09:33:14;;;;;;;32.73;23.40;;;;;;;1.50;77.02;99938.41;5010461;28;21148;-42
2021/12/08 09:35:46;;;;;;;32.33;23.13;;;;;;;1.52;77.47;99928.53;5010261;28;20467;-41
2021/12/08 09:38:18;;;;;;;25.20;20.27;;;;;;;1.54;78.46;99947.63;5010547;28;20438;-41
2021/12/08 09:40:53;;;;;;;27.30;19.87;;;;;;;1.53;79.01;99953.84;5012119;28;20846;-44
2021/12/08 09:43:27;;;;;;;30.30;22.70;;;;;;;1.52;79.08;99946.94;5011794;28;20443;-44
2021/12/08 09:45:57;;;;;;;29.10;20.90;;;;;;;1.57;79.23;99956.97;5011841;28;20461;-42
2021/12/08 09:48:29;;;;;;;30.73;22.33;;;;;;;1.58;79.21;99948.13;5011971;28;21016;-43
2021/12/08 09:50:58;;;;;;;29.80;20.53;;;;;;;1.60;79.25;99954.03;5011635;28;20475;-43
2021/12/08 09:53:27;;;;;;;30.20;21.63;;;;;;;1.67;78.31;99955.88;5011861;28;20433;-41
2021/12/08 09:55:56;;;;;;;35.43;23.20;;;;;;;1.71;78.77;99950.28;5012015;28;20469;-41
2021/12/08 09:58:25;;;;;;;29.80;21.60;;;;;;;1.75;80.05;99956.88;5008240;28;20461;-41
2021/12/08 10:00:57;;;;;;;26.47;21.67;;;;;;;1.81;80.54;99959.69;5010418;28;20572;-45
2021/12/08 10:03:25;;;;;;;29.60;23.50;;;;;;;1.78;82.02;99943.41;5010221;28;20433;-43
2021/12/08 10:05:53;;;;;;;29.43;22.20;;;;;;;1.81;82.01;99958.88;5009280;28;20471;-44
2021/12/08 10:08:20;;;;;;;25.67;20.47;;;;;;;1.83;82.26;99954.28;5009923;28;20449;-42
2021/12/08 10:10:49;;;;;;;26.90;20.47;;;;;;;1.84;82.53;99945.41;5010150;28;21003;-45
2021/12/08 10:13:17;;;;;;;29.43;21.20;;;;;;;1.86;82.57;99951.31;5012979;28;20433;-44
2021/12/08 10:15:46;;;;;;;27.90;21.40;;;;;;;1.88;82.60;99936.25;5013596;28;20465;-41
2021/12/08 10:18:14;;;;;;;26.20;19.43;;;;;;;1.92;83.26;99938.38;5014658;28;20438;-43
2021/12/08 10:20:44;;;;;;;32.97;21.63;;;;;;;1.94;83.45;99936.38;5013997;28;20464;-43
2021/12/08 10:23:20;;;;;;;29.10;19.97;;;;;;;1.95;83.50;99937.22;5014202;28;20436;-43
2021/12/08 10:25:51;;;;;;;24.87;21.10;;;;;;;2.03;83.13;99927.53;5013834;28;20477;-41
2021/12/08 10:28:21;;;;;;;27.17;21.00;;;;;;;2.07;84.33;99918.34;5014465;28;20433;-41
2021/12/08 10:30:53;;;;;;;29.77;21.27;;;;;;;2.09;85.33;99924.25;5013715;28;20552;-43
2021/12/08 10:33:55;;;;;;;31.43;21.77;;;;;;;2.07;85.55;99928.03;5013503;28;20443;-45
2021/12/08 10:36:43;;;;;;;27.73;20.80;;;;;;;2.10;85.69;99931.19;5013820;28;20470;-41
2021/12/08 10:39:14;;;;;;;29.67;21.23;;;;;;;2.16;85.51;99932.31;5013789;28;20971;-41
2021/12/08 10:42:10;;;;;;;27.17;19.70;;;;;;;2.16;85.42;99940.22;5013077;28;20432;-41
2021/12/08 10:44:47;;;;;;;28.23;20.20;;;;;;;2.14;85.56;99940.41;5012632;28;21075;-44
2021/12/08 10:47:21;;;;;;;30.13;19.80;;;;;;;2.18;85.51;99936.44;5012769;28;20441;-43
2021/12/08 10:55:33;;;;;;;28.13;21.20;;;;;;;2.36;86.02;99932.88;5012668;28;20461;-42
2021/12/08 10:58:01;;;;;;;24.87;20.77;;;;;;;2.46;85.98;99936.97;5013047;28;20441;-42
2021/12/08 11:00:30;;;;;;;29.00;23.93;;;;;;;2.43;87.68;99941.72;5012576;28;20461;-41
2021/12/08 11:03:07;;;;;;;23.50;20.23;;;;;;;2.39;88.24;99935.97;5012050;28;20934;-42
2021/12/08 11:05:43;;;;;;;27.00;21.10;;;;;;;2.45;87.80;99942.41;5012201;28;20849;-41
2021/12/08 11:08:15;;;;;;;26.20;20.90;;;;;;;2.55;87.78;99940.41;5013299;28;20429;-45
2021/12/08 11:10:47;;;;;;;27.27;20.10;;;;;;;2.67;88.45;99928.56;5012929;28;20469;-43
2021/12/08 11:13:16;;;;;;;30.40;20.73;;;;;;;2.79;89.01;99933.34;5013232;28;20471;-42
2021/12/08 11:15:45;;;;;;;27.27;21.87;;;;;;;2.91;89.54;99930.34;5013022;28;20465;-47
2021/12/08 11:18:18;;;;;;;28.27;19.43;;;;;;;2.89;90.33;99943.69;5013575;28;20433;-42
2021/12/08 11:20:50;;;;;;;28.50;21.40;;;;;;;2.92;91.00;99927.56;5013513;28;20872;-42
2021/12/08 11:23:39;;;;;;;27.23;22.10;;;;;;;2.94;90.90;99940.56;5012330;28;20794;-41
2021/12/08 11:26:22;;;;;;;26.00;21.30;;;;;;;2.98;90.45;99944.50;5012876;28;20479;-44
2021/12/08 11:28:59;;;;;;;25.63;19.90;;;;;;;3.09;90.75;99944.97;5014304;28;20437;-43
2021/12/08 11:31:34;;;;;;;26.10;20.73;;;;;;;3.11;91.38;99934.25;5014534;28;20439;-42
2021/12/08 11:34:06;;;;;;;28.97;21.33;;;;;;;3.14;91.57;99939.19;5013496;28;20473;-43
2021/12/08 11:36:38;;;;;;;22.93;19.03;;;;;;;3.28;91.67;99943.78;5014302;28;20448;-41
2021/12/08 11:39:11;;;;;;;24.30;19.17;;;;;;;3.33;91.57;99946.72;5014158;28;20441;-45
2021/12/08 11:41:40;;;;;;;23.30;20.00;;;;;;;3.42;91.72;99947.53;5007103;28;20432;-43
2021/12/08 11:44:12;;;;;;;29.77;20.57;;;;;;;3.56;91.70;99944.16;5013694;28;20603;-42
2021/12/08 11:47:00;;;;;;;22.20;19.83;;;;;;;3.61;91.86;99939.22;5014397;28;20484;-43
2021/12/08 11:49:29;;;;;;;28.87;21.40;;;;;;;3.62;92.20;99935.56;5014004;28;21005;-42
2021/12/08 11:52:01;;;;;;;27.53;19.77;;;;;;;3.72;92.01;99936.19;5014301;28;20801;-42
2021/12/08 11:54:37;;;;;;;22.70;19.30;;;;;;;3.72;92.25;99954.66;5013421;28;20824;-42
2021/12/08 11:57:14;;;;;;;21.73;17.93;;;;;;;3.72;92.26;99962.56;5014414;28;20425;-42
2021/12/08 11:59:47;;;;;;;21.13;18.80;;;;;;;3.63;91.94;99964.41;5014065;28;20825;-41
2021/12/08 12:02:15;;;;;;;24.00;20.20;;;;;;;3.57;92.38;99970.38;5013908;28;20434;-43
2021/12/08 12:04:45;;;;;;;21.43;19.13;;;;;;;3.53;92.01;99970.88;5013310;28;21006;-42
2021/12/08 12:07:14;;;;;;;27.73;20.97;;;;;;;3.50;92.11;99968.56;5013537;28;20433;-40
2021/12/08 12:09:43;;;;;;;26.60;21.23;;;;;;;3.47;92.24;99969.72;5013123;28;20463;-41
2021/12/08 12:12:11;;;;;;;26.53;19.10;;;;;;;3.46;92.23;99967.28;5013712;28;20433;-41
2021/12/08 12:14:39;;;;;;;26.33;19.60;;;;;;;3.41;91.84;99970.41;5013164;28;20463;-41
2021/12/08 12:17:07;;;;;;;23.63;19.40;;;;;;;3.42;91.79;99969.44;5013503;28;20436;-41